Terminal Aerodrome Forecast
Issued by NWS Cleveland, OH

Home | Current Version | Previous Version | Text Only | Print | Product List | Glossary Off
Versions: 1 2 3 4 5 6 7 8 9 10 11 12 13 14 15 16 17 18 19 20 21 22 23 24 25 26 27 28 29 30 31 32 33 34 35 36

317
FTUS41 KCLE 271139
TAFCLE
TAF
KCLE 271139Z 2712/2818 21008KT P6SM SCT012 BKN020
      TEMPO 2712/2713 4SM BR BKN012
     FM271500 24008KT P6SM BKN020
     FM271800 24008KT P6SM BKN050
     FM280000 VRB03KT P6SM OVC100
     FM280800 07005KT 6SM -RA BR OVC015
     FM281000 04005KT 3SM -RA BR OVC007=

USA.gov is the U.S. government's official web portal to all federal, state and local government web resources and services.